sensor_id;sensor_type;location;lat;lon;timestamp;P1;durP1;ratioP1;P2;durP2;ratioP2
18623;SDS011;9441;51.420;7.036;2023-04-10T00:00:23;12.83;;;7.63;;
18623;SDS011;9441;51.420;7.036;2023-04-10T00:01:26;11.13;;;7.00;;
18623;SDS011;9441;51.420;7.036;2023-04-10T00:02:27;11.07;;;7.03;;
18623;SDS011;9441;51.420;7.036;2023-04-10T00:03:31;14.57;;;7.57;;
18623;SDS011;9441;51.420;7.036;2023-04-10T00:04:33;14.73;;;7.60;;
18623;SDS011;9441;51.420;7.036;2023-04-10T00:05:35;14.10;;;7.80;;
18623;SDS011;9441;51.420;7.036;2023-04-10T00:06:36;11.70;;;7.13;;
18623;SDS011;9441;51.420;7.036;2023-04-10T00:07:40;13.80;;;7.17;;
18623;SDS011;9441;51.420;7.036;2023-04-10T00:08:41;13.87;;;7.57;;
18623;SDS011;9441;51.420;7.036;2023-04-10T00:09:43;11.40;;;7.50;;
18623;SDS011;9441;51.420;7.036;2023-04-10T00:10:45;11.93;;;6.90;;
18623;SDS011;9441;51.420;7.036;2023-04-10T00:11:47;13.57;;;7.93;;
18623;SDS011;9441;51.420;7.036;2023-04-10T00:12:48;15.23;;;7.80;;
18623;SDS011;9441;51.420;7.036;2023-04-10T00:13:53;12.83;;;7.27;;
18623;SDS011;9441;51.420;7.036;2023-04-10T00:14:54;14.83;;;7.67;;
18623;SDS011;9441;51.420;7.036;2023-04-10T00:15:57;13.33;;;7.80;;
18623;SDS011;9441;51.420;7.036;2023-04-10T00:16:58;11.63;;;7.33;;
18623;SDS011;9441;51.420;7.036;2023-04-10T00:18:01;13.10;;;7.70;;
18623;SDS011;9441;51.420;7.036;2023-04-10T00:19:03;16.97;;;7.33;;
18623;SDS011;9441;51.420;7.036;2023-04-10T00:20:07;12.93;;;7.70;;
18623;SDS011;9441;51.420;7.036;2023-04-10T00:21:09;12.13;;;7.70;;
18623;SDS011;9441;51.420;7.036;2023-04-10T00:22:12;11.63;;;7.03;;
18623;SDS011;9441;51.420;7.036;2023-04-10T00:23:13;11.63;;;7.27;;
18623;SDS011;9441;51.420;7.036;2023-04-10T00:24:15;12.33;;;7.37;;
18623;SDS011;9441;51.420;7.036;2023-04-10T00:25:17;12.73;;;7.93;;
18623;SDS011;9441;51.420;7.036;2023-04-10T00:26:22;13.17;;;7.83;;
18623;SDS011;9441;51.420;7.036;2023-04-10T00:27:23;16.23;;;7.60;;
18623;SDS011;9441;51.420;7.036;2023-04-10T00:28:26;12.50;;;7.80;;
18623;SDS011;9441;51.420;7.036;2023-04-10T00:29:27;13.40;;;7.43;;
18623;SDS011;9441;51.420;7.036;2023-04-10T00:30:29;13.20;;;7.50;;
18623;SDS011;9441;51.420;7.036;2023-04-10T00:31:31;19.10;;;7.83;;
18623;SDS011;9441;51.420;7.036;2023-04-10T00:32:33;11.80;;;7.40;;
18623;SDS011;9441;51.420;7.036;2023-04-10T00:33:35;12.50;;;6.90;;
18623;SDS011;9441;51.420;7.036;2023-04-10T00:34:38;12.23;;;7.53;;
18623;SDS011;9441;51.420;7.036;2023-04-10T00:35:40;13.20;;;7.07;;
18623;SDS011;9441;51.420;7.036;2023-04-10T00:36:44;12.17;;;7.40;;
18623;SDS011;9441;51.420;7.036;2023-04-10T00:37:45;12.27;;;6.93;;
18623;SDS011;9441;51.420;7.036;2023-04-10T00:38:49;12.07;;;7.03;;
18623;SDS011;9441;51.420;7.036;2023-04-10T00:39:50;12.63;;;7.07;;
18623;SDS011;9441;51.420;7.036;2023-04-10T00:40:52;14.00;;;7.40;;
18623;SDS011;9441;51.420;7.036;2023-04-10T00:41:54;12.00;;;7.20;;
18623;SDS011;9441;51.420;7.036;2023-04-10T00:42:56;12.63;;;8.10;;
18623;SDS011;9441;51.420;7.036;2023-04-10T00:43:58;13.63;;;7.67;;
18623;SDS011;9441;51.420;7.036;2023-04-10T00:45:00;13.30;;;7.90;;
18623;SDS011;9441;51.420;7.036;2023-04-10T00:46:02;12.10;;;7.10;;
18623;SDS011;9441;51.420;7.036;2023-04-10T00:47:06;14.60;;;8.10;;
18623;SDS011;9441;51.420;7.036;2023-04-10T00:48:07;12.97;;;7.77;;
18623;SDS011;9441;51.420;7.036;2023-04-10T00:49:10;13.17;;;8.03;;
18623;SDS011;9441;51.420;7.036;2023-04-10T00:50:13;15.10;;;8.03;;
18623;SDS011;9441;51.420;7.036;2023-04-10T00:51:16;13.53;;;7.80;;
18623;SDS011;9441;51.420;7.036;2023-04-10T00:52:18;16.90;;;7.60;;
18623;SDS011;9441;51.420;7.036;2023-04-10T00:53:21;13.67;;;8.07;;
18623;SDS011;9441;51.420;7.036;2023-04-10T00:54:22;12.37;;;7.57;;
18623;SDS011;9441;51.420;7.036;2023-04-10T00:55:26;13.63;;;7.67;;
18623;SDS011;9441;51.420;7.036;2023-04-10T00:56:28;14.43;;;7.87;;
18623;SDS011;9441;51.420;7.036;2023-04-10T00:57:32;15.23;;;8.37;;
18623;SDS011;9441;51.420;7.036;2023-04-10T00:58:33;14.20;;;8.23;;
18623;SDS011;9441;51.420;7.036;2023-04-10T00:59:36;14.63;;;7.83;;
18623;SDS011;9441;51.420;7.036;2023-04-10T01:00:38;12.40;;;7.83;;
18623;SDS011;9441;51.420;7.036;2023-04-10T01:01:40;11.47;;;7.50;;
18623;SDS011;9441;51.420;7.036;2023-04-10T01:02:41;13.63;;;7.73;;
18623;SDS011;9441;51.420;7.036;2023-04-10T01:03:44;12.20;;;7.63;;
18623;SDS011;9441;51.420;7.036;2023-04-10T01:04:45;15.07;;;8.47;;
18623;SDS011;9441;51.420;7.036;2023-04-10T01:05:51;12.97;;;8.20;;
18623;SDS011;9441;51.420;7.036;2023-04-10T01:06:58;14.77;;;8.30;;
18623;SDS011;9441;51.420;7.036;2023-04-10T01:08:01;11.63;;;7.53;;
18623;SDS011;9441;51.420;7.036;2023-04-10T01:09:08;16.73;;;8.40;;
18623;SDS011;9441;51.420;7.036;2023-04-10T01:10:13;13.83;;;7.97;;
18623;SDS011;9441;51.420;7.036;2023-04-10T01:11:17;11.93;;;7.70;;
18623;SDS011;9441;51.420;7.036;2023-04-10T01:12:29;12.53;;;8.13;;
18623;SDS011;9441;51.420;7.036;2023-04-10T01:13:35;14.90;;;7.83;;
18623;SDS011;9441;51.420;7.036;2023-04-10T01:14:41;17.03;;;8.40;;
18623;SDS011;9441;51.420;7.036;2023-04-10T01:15:48;16.43;;;7.90;;
18623;SDS011;9441;51.420;7.036;2023-04-10T01:16:55;13.73;;;8.33;;
18623;SDS011;9441;51.420;7.036;2023-04-10T01:17:58;13.87;;;8.30;;
18623;SDS011;9441;51.420;7.036;2023-04-10T01:19:04;14.50;;;7.93;;
18623;SDS011;9441;51.420;7.036;2023-04-10T01:20:08;16.20;;;8.73;;
18623;SDS011;9441;51.420;7.036;2023-04-10T01:21:13;13.27;;;7.87;;
18623;SDS011;9441;51.420;7.036;2023-04-10T01:22:15;13.93;;;7.23;;
18623;SDS011;9441;51.420;7.036;2023-04-10T01:23:20;14.20;;;8.30;;
18623;SDS011;9441;51.420;7.036;2023-04-10T01:24:36;14.90;;;8.43;;
18623;SDS011;9441;51.420;7.036;2023-04-10T01:25:42;12.63;;;7.80;;
18623;SDS011;9441;51.420;7.036;2023-04-10T01:26:52;13.50;;;7.93;;
18623;SDS011;9441;51.420;7.036;2023-04-10T01:28:02;13.87;;;8.43;;
18623;SDS011;9441;51.420;7.036;2023-04-10T01:29:06;12.97;;;7.43;;
18623;SDS011;9441;51.420;7.036;2023-04-10T01:30:11;13.63;;;8.00;;
18623;SDS011;9441;51.420;7.036;2023-04-10T01:31:17;14.27;;;8.03;;
18623;SDS011;9441;51.420;7.036;2023-04-10T01:32:21;11.53;;;7.30;;
18623;SDS011;9441;51.420;7.036;2023-04-10T01:33:25;14.00;;;8.10;;
18623;SDS011;9441;51.420;7.036;2023-04-10T01:34:31;12.93;;;7.70;;
18623;SDS011;9441;51.420;7.036;2023-04-10T01:35:34;12.77;;;7.67;;
18623;SDS011;9441;51.420;7.036;2023-04-10T01:36:39;20.37;;;7.50;;
18623;SDS011;9441;51.420;7.036;2023-04-10T01:37:44;16.17;;;7.77;;
18623;SDS011;9441;51.420;7.036;2023-04-10T01:38:48;13.10;;;8.00;;
18623;SDS011;9441;51.420;7.036;2023-04-10T01:39:53;12.83;;;7.90;;
18623;SDS011;9441;51.420;7.036;2023-04-10T01:40:59;14.50;;;7.90;;
18623;SDS011;9441;51.420;7.036;2023-04-10T01:42:03;14.47;;;7.43;;
18623;SDS011;9441;51.420;7.036;2023-04-10T01:43:14;12.67;;;7.87;;
18623;SDS011;9441;51.420;7.036;2023-04-10T01:44:24;16.27;;;8.53;;
18623;SDS011;9441;51.420;7.036;2023-04-10T01:45:27;13.13;;;8.10;;
18623;SDS011;9441;51.420;7.036;2023-04-10T01:46:29;15.13;;;8.07;;
18623;SDS011;9441;51.420;7.036;2023-04-10T01:47:31;14.17;;;7.97;;
18623;SDS011;9441;51.420;7.036;2023-04-10T01:48:34;13.17;;;8.00;;
18623;SDS011;9441;51.420;7.036;2023-04-10T01:49:36;12.60;;;8.10;;
18623;SDS011;9441;51.420;7.036;2023-04-10T01:50:43;13.53;;;7.53;;
18623;SDS011;9441;51.420;7.036;2023-04-10T01:51:45;12.70;;;7.83;;
18623;SDS011;9441;51.420;7.036;2023-04-10T01:52:49;15.17;;;8.30;;
18623;SDS011;9441;51.420;7.036;2023-04-10T01:53:54;16.30;;;8.10;;
18623;SDS011;9441;51.420;7.036;2023-04-10T01:55:00;19.50;;;7.70;;
18623;SDS011;9441;51.420;7.036;2023-04-10T01:56:09;12.90;;;7.93;;
18623;SDS011;9441;51.420;7.036;2023-04-10T01:57:19;14.23;;;7.63;;
18623;SDS011;9441;51.420;7.036;2023-04-10T01:58:31;14.37;;;7.93;;
18623;SDS011;9441;51.420;7.036;2023-04-10T01:59:35;15.00;;;7.90;;
18623;SDS011;9441;51.420;7.036;2023-04-10T02:00:37;12.87;;;7.53;;
18623;SDS011;9441;51.420;7.036;2023-04-10T02:01:40;12.60;;;7.53;;
18623;SDS011;9441;51.420;7.036;2023-04-10T02:02:42;15.47;;;8.10;;
18623;SDS011;9441;51.420;7.036;2023-04-10T02:03:44;12.07;;;7.30;;
18623;SDS011;9441;51.420;7.036;2023-04-10T02:04:46;16.10;;;8.60;;
18623;SDS011;9441;51.420;7.036;2023-04-10T02:05:55;15.93;;;8.27;;
18623;SDS011;9441;51.420;7.036;2023-04-10T02:07:02;15.63;;;8.13;;
18623;SDS011;9441;51.420;7.036;2023-04-10T02:08:07;15.63;;;8.40;;
18623;SDS011;9441;51.420;7.036;2023-04-10T02:09:15;15.03;;;7.67;;
18623;SDS011;9441;51.420;7.036;2023-04-10T02:10:21;16.43;;;9.00;;
18623;SDS011;9441;51.420;7.036;2023-04-10T02:11:28;14.33;;;8.67;;
18623;SDS011;9441;51.420;7.036;2023-04-10T02:12:33;14.87;;;8.03;;
18623;SDS011;9441;51.420;7.036;2023-04-10T02:13:36;13.70;;;8.27;;
18623;SDS011;9441;51.420;7.036;2023-04-10T02:14:41;13.73;;;7.63;;
18623;SDS011;9441;51.420;7.036;2023-04-10T02:15:44;15.93;;;8.23;;
18623;SDS011;9441;51.420;7.036;2023-04-10T02:16:47;15.70;;;9.00;;
18623;SDS011;9441;51.420;7.036;2023-04-10T02:17:50;14.87;;;8.57;;
18623;SDS011;9441;51.420;7.036;2023-04-10T02:18:53;14.17;;;8.20;;
18623;SDS011;9441;51.420;7.036;2023-04-10T02:19:55;13.20;;;7.67;;
18623;SDS011;9441;51.420;7.036;2023-04-10T02:20:58;21.27;;;8.13;;
18623;SDS011;9441;51.420;7.036;2023-04-10T02:22:00;16.23;;;7.70;;
18623;SDS011;9441;51.420;7.036;2023-04-10T02:23:03;16.33;;;7.87;;
18623;SDS011;9441;51.420;7.036;2023-04-10T02:24:05;13.27;;;7.63;;
18623;SDS011;9441;51.420;7.036;2023-04-10T02:25:08;12.20;;;7.33;;
18623;SDS011;9441;51.420;7.036;2023-04-10T02:26:10;14.70;;;8.13;;
18623;SDS011;9441;51.420;7.036;2023-04-10T02:27:12;15.37;;;8.43;;
18623;SDS011;9441;51.420;7.036;2023-04-10T02:28:13;18.30;;;8.73;;
18623;SDS011;9441;51.420;7.036;2023-04-10T02:29:16;14.67;;;8.00;;
18623;SDS011;9441;51.420;7.036;2023-04-10T02:30:19;14.27;;;8.37;;
18623;SDS011;9441;51.420;7.036;2023-04-10T02:31:23;15.20;;;8.00;;
18623;SDS011;9441;51.420;7.036;2023-04-10T02:32:24;14.37;;;8.07;;
18623;SDS011;9441;51.420;7.036;2023-04-10T02:33:27;15.60;;;8.03;;
18623;SDS011;9441;51.420;7.036;2023-04-10T02:34:28;13.43;;;7.63;;
18623;SDS011;9441;51.420;7.036;2023-04-10T02:35:32;14.53;;;7.87;;
18623;SDS011;9441;51.420;7.036;2023-04-10T02:36:37;15.17;;;7.90;;
18623;SDS011;9441;51.420;7.036;2023-04-10T02:37:41;15.70;;;8.30;;
18623;SDS011;9441;51.420;7.036;2023-04-10T02:38:42;14.93;;;7.73;;
18623;SDS011;9441;51.420;7.036;2023-04-10T02:39:46;15.43;;;9.20;;
18623;SDS011;9441;51.420;7.036;2023-04-10T02:40:47;14.20;;;7.77;;
18623;SDS011;9441;51.420;7.036;2023-04-10T02:41:51;13.43;;;8.10;;
18623;SDS011;9441;51.420;7.036;2023-04-10T02:42:52;14.83;;;8.47;;
18623;SDS011;9441;51.420;7.036;2023-04-10T02:43:55;14.73;;;8.63;;
18623;SDS011;9441;51.420;7.036;2023-04-10T02:45:00;14.30;;;8.03;;
18623;SDS011;9441;51.420;7.036;2023-04-10T02:46:10;12.03;;;7.83;;
18623;SDS011;9441;51.420;7.036;2023-04-10T02:47:13;14.13;;;8.10;;
18623;SDS011;9441;51.420;7.036;2023-04-10T02:48:19;14.90;;;8.47;;
18623;SDS011;9441;51.420;7.036;2023-04-10T02:49:26;13.53;;;7.47;;
18623;SDS011;9441;51.420;7.036;2023-04-10T02:50:29;12.43;;;7.70;;
18623;SDS011;9441;51.420;7.036;2023-04-10T02:51:33;13.83;;;7.40;;
18623;SDS011;9441;51.420;7.036;2023-04-10T02:52:36;13.83;;;7.87;;
18623;SDS011;9441;51.420;7.036;2023-04-10T02:53:37;13.03;;;8.07;;
18623;SDS011;9441;51.420;7.036;2023-04-10T02:54:40;14.60;;;7.87;;
18623;SDS011;9441;51.420;7.036;2023-04-10T02:55:41;14.77;;;8.03;;
18623;SDS011;9441;51.420;7.036;2023-04-10T02:56:44;13.90;;;7.90;;
18623;SDS011;9441;51.420;7.036;2023-04-10T02:57:45;14.10;;;8.67;;
18623;SDS011;9441;51.420;7.036;2023-04-10T02:58:47;14.97;;;8.17;;
18623;SDS011;9441;51.420;7.036;2023-04-10T02:59:49;20.37;;;8.50;;
18623;SDS011;9441;51.420;7.036;2023-04-10T03:00:52;15.50;;;7.83;;
18623;SDS011;9441;51.420;7.036;2023-04-10T03:02:06;14.03;;;8.03;;
18623;SDS011;9441;51.420;7.036;2023-04-10T03:03:10;13.00;;;7.47;;
18623;SDS011;9441;51.420;7.036;2023-04-10T03:04:22;17.70;;;8.13;;
18623;SDS011;9441;51.420;7.036;2023-04-10T03:05:25;15.00;;;8.10;;
18623;SDS011;9441;51.420;7.036;2023-04-10T03:06:26;14.73;;;8.17;;
18623;SDS011;9441;51.420;7.036;2023-04-10T03:07:30;15.07;;;8.33;;
18623;SDS011;9441;51.420;7.036;2023-04-10T03:08:31;15.73;;;7.67;;
18623;SDS011;9441;51.420;7.036;2023-04-10T03:09:33;13.33;;;8.67;;
18623;SDS011;9441;51.420;7.036;2023-04-10T03:10:35;16.37;;;8.57;;
18623;SDS011;9441;51.420;7.036;2023-04-10T03:11:38;14.67;;;8.20;;
18623;SDS011;9441;51.420;7.036;2023-04-10T03:12:39;14.13;;;7.90;;
18623;SDS011;9441;51.420;7.036;2023-04-10T03:13:42;13.93;;;7.97;;
18623;SDS011;9441;51.420;7.036;2023-04-10T03:14:43;14.37;;;8.00;;
18623;SDS011;9441;51.420;7.036;2023-04-10T03:15:45;14.80;;;8.93;;
18623;SDS011;9441;51.420;7.036;2023-04-10T03:16:47;15.83;;;8.43;;
18623;SDS011;9441;51.420;7.036;2023-04-10T03:17:51;14.47;;;8.40;;
18623;SDS011;9441;51.420;7.036;2023-04-10T03:18:52;15.20;;;7.60;;
18623;SDS011;9441;51.420;7.036;2023-04-10T03:19:55;14.67;;;8.57;;
18623;SDS011;9441;51.420;7.036;2023-04-10T03:20:56;15.27;;;8.17;;
18623;SDS011;9441;51.420;7.036;2023-04-10T03:21:59;15.23;;;8.13;;
18623;SDS011;9441;51.420;7.036;2023-04-10T03:23:01;15.17;;;8.37;;
18623;SDS011;9441;51.420;7.036;2023-04-10T03:24:04;13.70;;;7.80;;
18623;SDS011;9441;51.420;7.036;2023-04-10T03:25:06;12.63;;;7.97;;
18623;SDS011;9441;51.420;7.036;2023-04-10T03:26:08;14.67;;;7.87;;
18623;SDS011;9441;51.420;7.036;2023-04-10T03:27:11;15.47;;;8.00;;
18623;SDS011;9441;51.420;7.036;2023-04-10T03:28:14;12.57;;;7.70;;
18623;SDS011;9441;51.420;7.036;2023-04-10T03:29:15;13.90;;;7.93;;
18623;SDS011;9441;51.420;7.036;2023-04-10T03:30:18;13.53;;;7.50;;
18623;SDS011;9441;51.420;7.036;2023-04-10T03:31:22;12.63;;;7.83;;
18623;SDS011;9441;51.420;7.036;2023-04-10T03:32:28;11.97;;;7.53;;
18623;SDS011;9441;51.420;7.036;2023-04-10T03:33:32;12.27;;;7.43;;
18623;SDS011;9441;51.420;7.036;2023-04-10T03:34:35;16.07;;;7.30;;
18623;SDS011;9441;51.420;7.036;2023-04-10T03:35:36;12.73;;;8.10;;
18623;SDS011;9441;51.420;7.036;2023-04-10T03:36:40;13.73;;;8.30;;
18623;SDS011;9441;51.420;7.036;2023-04-10T03:37:42;13.23;;;7.70;;
18623;SDS011;9441;51.420;7.036;2023-04-10T03:38:44;11.93;;;7.37;;
18623;SDS011;9441;51.420;7.036;2023-04-10T03:39:47;12.10;;;7.13;;
18623;SDS011;9441;51.420;7.036;2023-04-10T03:40:48;12.97;;;7.57;;
18623;SDS011;9441;51.420;7.036;2023-04-10T03:41:53;14.13;;;7.70;;
18623;SDS011;9441;51.420;7.036;2023-04-10T03:42:57;12.03;;;7.53;;
18623;SDS011;9441;51.420;7.036;2023-04-10T03:44:02;11.83;;;7.47;;
18623;SDS011;9441;51.420;7.036;2023-04-10T03:45:04;14.00;;;7.30;;
18623;SDS011;9441;51.420;7.036;2023-04-10T03:46:07;16.40;;;7.70;;
18623;SDS011;9441;51.420;7.036;2023-04-10T03:47:14;13.97;;;7.60;;
18623;SDS011;9441;51.420;7.036;2023-04-10T03:48:21;11.13;;;7.10;;
18623;SDS011;9441;51.420;7.036;2023-04-10T03:49:24;11.90;;;7.33;;
18623;SDS011;9441;51.420;7.036;2023-04-10T03:50:35;13.43;;;7.70;;
18623;SDS011;9441;51.420;7.036;2023-04-10T03:51:36;12.57;;;7.47;;
18623;SDS011;9441;51.420;7.036;2023-04-10T03:52:39;12.37;;;7.20;;
18623;SDS011;9441;51.420;7.036;2023-04-10T03:53:44;13.37;;;7.43;;
18623;SDS011;9441;51.420;7.036;2023-04-10T03:54:49;13.50;;;7.73;;
18623;SDS011;9441;51.420;7.036;2023-04-10T03:55:58;12.10;;;7.47;;
18623;SDS011;9441;51.420;7.036;2023-04-10T03:57:00;14.70;;;7.63;;
18623;SDS011;9441;51.420;7.036;2023-04-10T03:58:02;13.30;;;7.80;;
18623;SDS011;9441;51.420;7.036;2023-04-10T03:59:04;13.07;;;7.20;;
18623;SDS011;9441;51.420;7.036;2023-04-10T04:00:12;14.17;;;7.43;;
18623;SDS011;9441;51.420;7.036;2023-04-10T04:01:21;12.03;;;7.60;;
18623;SDS011;9441;51.420;7.036;2023-04-10T04:02:32;12.60;;;7.07;;
18623;SDS011;9441;51.420;7.036;2023-04-10T04:03:34;11.57;;;7.43;;
18623;SDS011;9441;51.420;7.036;2023-04-10T04:04:37;13.87;;;7.60;;
18623;SDS011;9441;51.420;7.036;2023-04-10T04:06:14;9.33;;;6.77;;
18623;SDS011;9441;51.420;7.036;2023-04-10T04:07:35;10.67;;;6.53;;
18623;SDS011;9441;51.420;7.036;2023-04-10T04:09:05;12.90;;;7.47;;
18623;SDS011;9441;51.420;7.036;2023-04-10T04:10:13;13.80;;;7.27;;
18623;SDS011;9441;51.420;7.036;2023-04-10T04:11:33;13.83;;;7.87;;
18623;SDS011;9441;51.420;7.036;2023-04-10T04:12:39;17.30;;;7.57;;
18623;SDS011;9441;51.420;7.036;2023-04-10T04:13:52;12.90;;;7.07;;
18623;SDS011;9441;51.420;7.036;2023-04-10T04:15:29;13.97;;;7.73;;
18623;SDS011;9441;51.420;7.036;2023-04-10T04:16:48;11.90;;;7.07;;
18623;SDS011;9441;51.420;7.036;2023-04-10T04:18:29;12.00;;;6.83;;
18623;SDS011;9441;51.420;7.036;2023-04-10T04:19:52;13.83;;;7.37;;
18623;SDS011;9441;51.420;7.036;2023-04-10T04:21:12;15.00;;;7.50;;
18623;SDS011;9441;51.420;7.036;2023-04-10T04:22:34;15.97;;;7.67;;
18623;SDS011;9441;51.420;7.036;2023-04-10T04:23:57;11.83;;;7.03;;
18623;SDS011;9441;51.420;7.036;2023-04-10T04:25:05;14.27;;;7.03;;
18623;SDS011;9441;51.420;7.036;2023-04-10T04:26:22;11.90;;;6.83;;
18623;SDS011;9441;51.420;7.036;2023-04-10T04:27:44;11.43;;;6.97;;
18623;SDS011;9441;51.420;7.036;2023-04-10T04:29:05;11.67;;;6.80;;
18623;SDS011;9441;51.420;7.036;2023-04-10T04:30:36;13.60;;;7.30;;
18623;SDS011;9441;51.420;7.036;2023-04-10T04:31:58;12.73;;;6.87;;
18623;SDS011;9441;51.420;7.036;2023-04-10T04:33:19;13.10;;;7.37;;
18623;SDS011;9441;51.420;7.036;2023-04-10T04:34:33;12.20;;;7.00;;
18623;SDS011;9441;51.420;7.036;2023-04-10T04:35:49;10.93;;;6.83;;
18623;SDS011;9441;51.420;7.036;2023-04-10T04:37:09;10.60;;;6.73;;
18623;SDS011;9441;51.420;7.036;2023-04-10T04:38:29;15.13;;;7.27;;
18623;SDS011;9441;51.420;7.036;2023-04-10T04:39:41;13.53;;;7.27;;
18623;SDS011;9441;51.420;7.036;2023-04-10T04:41:04;11.73;;;7.27;;
18623;SDS011;9441;51.420;7.036;2023-04-10T04:42:25;13.20;;;7.07;;
18623;SDS011;9441;51.420;7.036;2023-04-10T04:43:40;12.13;;;7.40;;
18623;SDS011;9441;51.420;7.036;2023-04-10T04:44:59;12.63;;;7.37;;
18623;SDS011;9441;51.420;7.036;2023-04-10T04:46:17;11.63;;;6.87;;
18623;SDS011;9441;51.420;7.036;2023-04-10T04:47:38;13.67;;;7.43;;
18623;SDS011;9441;51.420;7.036;2023-04-10T04:48:51;12.63;;;6.93;;
18623;SDS011;9441;51.420;7.036;2023-04-10T04:50:14;13.17;;;7.77;;
18623;SDS011;9441;51.420;7.036;2023-04-10T04:51:23;11.10;;;7.50;;
18623;SDS011;9441;51.420;7.036;2023-04-10T04:52:35;12.17;;;7.03;;
18623;SDS011;9441;51.420;7.036;2023-04-10T04:53:58;13.43;;;7.33;;
18623;SDS011;9441;51.420;7.036;2023-04-10T04:55:20;11.77;;;6.80;;
18623;SDS011;9441;51.420;7.036;2023-04-10T04:56:58;9.80;;;6.30;;
18623;SDS011;9441;51.420;7.036;2023-04-10T04:58:14;12.20;;;6.63;;
18623;SDS011;9441;51.420;7.036;2023-04-10T04:59:32;12.50;;;7.67;;
18623;SDS011;9441;51.420;7.036;2023-04-10T05:01:07;14.00;;;7.77;;
18623;SDS011;9441;51.420;7.036;2023-04-10T05:02:36;13.73;;;7.37;;
18623;SDS011;9441;51.420;7.036;2023-04-10T05:03:57;12.83;;;7.20;;
18623;SDS011;9441;51.420;7.036;2023-04-10T05:05:16;12.50;;;6.93;;
18623;SDS011;9441;51.420;7.036;2023-04-10T05:06:27;12.73;;;7.10;;
18623;SDS011;9441;51.420;7.036;2023-04-10T05:07:51;13.30;;;7.70;;
18623;SDS011;9441;51.420;7.036;2023-04-10T05:09:12;14.87;;;7.37;;
18623;SDS011;9441;51.420;7.036;2023-04-10T05:10:32;11.03;;;6.73;;
18623;SDS011;9441;51.420;7.036;2023-04-10T05:11:48;13.63;;;7.60;;
18623;SDS011;9441;51.420;7.036;2023-04-10T05:13:09;11.70;;;6.87;;
18623;SDS011;9441;51.420;7.036;2023-04-10T05:14:20;11.13;;;6.90;;
18623;SDS011;9441;51.420;7.036;2023-04-10T05:15:40;10.93;;;7.03;;
18623;SDS011;9441;51.420;7.036;2023-04-10T05:16:42;15.97;;;6.90;;
18623;SDS011;9441;51.420;7.036;2023-04-10T05:17:54;11.33;;;7.10;;
18623;SDS011;9441;51.420;7.036;2023-04-10T05:19:13;11.20;;;7.47;;
18623;SDS011;9441;51.420;7.036;2023-04-10T05:20:34;12.33;;;7.10;;
18623;SDS011;9441;51.420;7.036;2023-04-10T05:21:45;12.70;;;7.70;;
18623;SDS011;9441;51.420;7.036;2023-04-10T05:23:04;11.93;;;7.17;;
18623;SDS011;9441;51.420;7.036;2023-04-10T05:24:28;13.50;;;7.27;;
18623;SDS011;9441;51.420;7.036;2023-04-10T05:25:45;12.33;;;7.17;;
18623;SDS011;9441;51.420;7.036;2023-04-10T05:26:54;12.43;;;7.37;;
18623;SDS011;9441;51.420;7.036;2023-04-10T05:28:05;12.43;;;7.57;;
18623;SDS011;9441;51.420;7.036;2023-04-10T05:29:32;11.27;;;7.00;;
18623;SDS011;9441;51.420;7.036;2023-04-10T05:30:53;10.93;;;6.70;;
18623;SDS011;9441;51.420;7.036;2023-04-10T05:32:13;11.00;;;6.83;;
18623;SDS011;9441;51.420;7.036;2023-04-10T05:33:27;13.17;;;7.40;;
18623;SDS011;9441;51.420;7.036;2023-04-10T05:34:44;11.27;;;6.90;;
18623;SDS011;9441;51.420;7.036;2023-04-10T05:35:58;12.67;;;7.27;;
18623;SDS011;9441;51.420;7.036;2023-04-10T05:37:08;11.77;;;7.50;;
18623;SDS011;9441;51.420;7.036;2023-04-10T05:38:20;11.90;;;6.90;;
18623;SDS011;9441;51.420;7.036;2023-04-10T05:39:40;10.50;;;6.83;;
18623;SDS011;9441;51.420;7.036;2023-04-10T05:41:04;11.40;;;7.00;;
18623;SDS011;9441;51.420;7.036;2023-04-10T05:42:15;12.07;;;7.50;;
18623;SDS011;9441;51.420;7.036;2023-04-10T05:43:29;12.43;;;7.13;;
18623;SDS011;9441;51.420;7.036;2023-04-10T05:44:56;12.63;;;7.27;;
18623;SDS011;9441;51.420;7.036;2023-04-10T05:46:09;10.97;;;6.80;;
18623;SDS011;9441;51.420;7.036;2023-04-10T05:47:36;11.47;;;6.53;;
18623;SDS011;9441;51.420;7.036;2023-04-10T05:48:59;12.73;;;7.03;;
18623;SDS011;9441;51.420;7.036;2023-04-10T05:50:34;13.23;;;7.00;;
18623;SDS011;9441;51.420;7.036;2023-04-10T05:51:47;11.53;;;6.40;;
18623;SDS011;9441;51.420;7.036;2023-04-10T05:53:04;12.90;;;6.80;;
18623;SDS011;9441;51.420;7.036;2023-04-10T05:54:34;13.43;;;6.87;;
18623;SDS011;9441;51.420;7.036;2023-04-10T05:55:51;11.00;;;6.77;;
18623;SDS011;9441;51.420;7.036;2023-04-10T05:57:11;12.53;;;6.70;;
18623;SDS011;9441;51.420;7.036;2023-04-10T05:58:33;10.03;;;6.43;;
18623;SDS011;9441;51.420;7.036;2023-04-10T05:59:50;9.23;;;6.50;;
18623;SDS011;9441;51.420;7.036;2023-04-10T06:01:12;11.20;;;6.77;;
18623;SDS011;9441;51.420;7.036;2023-04-10T06:02:23;17.60;;;6.47;;
18623;SDS011;9441;51.420;7.036;2023-04-10T06:03:26;11.27;;;6.87;;
18623;SDS011;9441;51.420;7.036;2023-04-10T06:04:33;10.97;;;6.83;;
18623;SDS011;9441;51.420;7.036;2023-04-10T06:05:35;11.43;;;5.93;;
18623;SDS011;9441;51.420;7.036;2023-04-10T06:06:39;13.87;;;6.33;;
18623;SDS011;9441;51.420;7.036;2023-04-10T06:07:41;11.53;;;6.70;;
18623;SDS011;9441;51.420;7.036;2023-04-10T06:08:44;10.80;;;6.60;;
18623;SDS011;9441;51.420;7.036;2023-04-10T06:09:46;10.57;;;6.40;;
18623;SDS011;9441;51.420;7.036;2023-04-10T06:10:48;10.57;;;6.40;;
18623;SDS011;9441;51.420;7.036;2023-04-10T06:11:50;9.90;;;6.20;;
18623;SDS011;9441;51.420;7.036;2023-04-10T06:12:55;11.03;;;6.43;;
18623;SDS011;9441;51.420;7.036;2023-04-10T06:13:59;9.40;;;6.20;;
18623;SDS011;9441;51.420;7.036;2023-04-10T06:15:07;9.67;;;6.07;;
18623;SDS011;9441;51.420;7.036;2023-04-10T06:16:10;9.27;;;6.10;;
18623;SDS011;9441;51.420;7.036;2023-04-10T06:17:14;11.33;;;6.97;;
18623;SDS011;9441;51.420;7.036;2023-04-10T06:18:15;10.47;;;6.40;;
18623;SDS011;9441;51.420;7.036;2023-04-10T06:19:17;11.17;;;6.73;;
18623;SDS011;9441;51.420;7.036;2023-04-10T06:20:19;11.33;;;6.80;;
18623;SDS011;9441;51.420;7.036;2023-04-10T06:21:22;13.33;;;6.83;;
18623;SDS011;9441;51.420;7.036;2023-04-10T06:22:25;8.70;;;6.07;;
18623;SDS011;9441;51.420;7.036;2023-04-10T06:23:26;9.70;;;6.43;;
18623;SDS011;9441;51.420;7.036;2023-04-10T06:24:30;11.23;;;6.50;;
18623;SDS011;9441;51.420;7.036;2023-04-10T06:25:31;7.90;;;5.70;;
18623;SDS011;9441;51.420;7.036;2023-04-10T06:26:34;15.13;;;6.40;;
18623;SDS011;9441;51.420;7.036;2023-04-10T06:27:37;11.43;;;6.80;;
18623;SDS011;9441;51.420;7.036;2023-04-10T06:28:43;8.93;;;5.87;;
18623;SDS011;9441;51.420;7.036;2023-04-10T06:29:47;9.67;;;6.10;;
18623;SDS011;9441;51.420;7.036;2023-04-10T06:30:54;9.40;;;6.20;;
18623;SDS011;9441;51.420;7.036;2023-04-10T06:32:03;10.03;;;6.47;;
18623;SDS011;9441;51.420;7.036;2023-04-10T06:33:09;8.80;;;6.07;;
18623;SDS011;9441;51.420;7.036;2023-04-10T06:34:15;9.10;;;6.07;;
18623;SDS011;9441;51.420;7.036;2023-04-10T06:35:26;18.43;;;7.03;;
18623;SDS011;9441;51.420;7.036;2023-04-10T06:36:28;10.10;;;6.50;;
18623;SDS011;9441;51.420;7.036;2023-04-10T06:37:35;12.70;;;6.83;;
18623;SDS011;9441;51.420;7.036;2023-04-10T06:38:38;8.67;;;5.57;;
18623;SDS011;9441;51.420;7.036;2023-04-10T06:39:41;10.93;;;6.47;;
18623;SDS011;9441;51.420;7.036;2023-04-10T06:40:43;9.80;;;7.00;;
18623;SDS011;9441;51.420;7.036;2023-04-10T06:41:44;8.43;;;5.70;;
18623;SDS011;9441;51.420;7.036;2023-04-10T06:42:58;9.83;;;6.07;;
18623;SDS011;9441;51.420;7.036;2023-04-10T06:44:06;12.40;;;5.87;;
18623;SDS011;9441;51.420;7.036;2023-04-10T06:45:09;10.53;;;6.30;;
18623;SDS011;9441;51.420;7.036;2023-04-10T06:46:12;9.03;;;6.03;;
18623;SDS011;9441;51.420;7.036;2023-04-10T06:47:15;9.20;;;6.00;;